createdAt,value
2019-02-23T00:01:22.007Z,8.57
2019-02-23T00:03:51.350Z,12.50
2019-02-23T00:06:29.241Z,13.20
2019-02-23T00:08:51.661Z,11.17
2019-02-23T00:11:21.028Z,10.93
2019-02-23T00:13:50.366Z,11.30
2019-02-23T00:16:19.711Z,9.77
2019-02-23T00:18:49.026Z,9.07
2019-02-23T00:21:18.362Z,11.67
2019-02-23T00:23:48.651Z,7.77
2019-02-23T00:26:17.971Z,9.83
2019-02-23T00:28:47.318Z,8.20
2019-02-23T00:31:16.629Z,9.07
2019-02-23T00:33:45.975Z,11.47
2019-02-23T00:36:15.243Z,8.80
2019-02-23T00:38:44.495Z,8.27
2019-02-23T00:41:13.830Z,11.70
2019-02-23T00:43:43.175Z,9.70
2019-02-23T00:46:12.535Z,8.03
2019-02-23T00:48:41.827Z,7.90
2019-02-23T00:51:11.210Z,10.20
2019-02-23T00:53:40.511Z,9.33
2019-02-23T00:56:09.849Z,8.83
2019-02-23T00:58:39.189Z,9.00
2019-02-23T01:01:08.537Z,7.57
2019-02-23T01:03:37.891Z,11.63
2019-02-23T01:06:07.200Z,10.17
2019-02-23T01:08:36.552Z,9.90
2019-02-23T01:11:05.948Z,9.40
2019-02-23T01:13:35.239Z,9.27
2019-02-23T01:16:04.603Z,10.43
2019-02-23T01:18:33.947Z,8.80
2019-02-23T01:21:03.287Z,9.83
2019-02-23T01:23:32.605Z,9.80
2019-02-23T01:26:01.950Z,8.90
2019-02-23T01:28:31.274Z,8.10
2019-02-23T01:31:00.634Z,11.13
2019-02-23T01:33:29.945Z,11.67
2019-02-23T01:35:59.291Z,10.37
2019-02-23T01:38:28.592Z,8.83
2019-02-23T01:40:57.927Z,11.50
2019-02-23T01:43:27.245Z,7.50
2019-02-23T01:45:56.584Z,8.50
2019-02-23T01:48:25.888Z,8.30
2019-02-23T01:50:55.203Z,7.70
2019-02-23T01:53:24.516Z,10.07
2019-02-23T01:55:53.832Z,7.27
2019-02-23T01:58:23.141Z,9.47
2019-02-23T02:00:52.443Z,11.97
2019-02-23T02:03:21.750Z,9.40
2019-02-23T02:05:51.058Z,11.33
2019-02-23T02:08:20.367Z,12.17
2019-02-23T02:10:49.748Z,8.13
2019-02-23T02:13:19.083Z,12.27
2019-02-23T02:15:48.578Z,9.60
2019-02-23T02:18:17.920Z,9.43
2019-02-23T02:20:47.236Z,10.17
2019-02-23T02:23:16.627Z,8.70
2019-02-23T02:25:45.973Z,11.33
2019-02-23T02:28:15.274Z,10.17
2019-02-23T02:30:44.629Z,12.27
2019-02-23T02:33:14.013Z,10.40
2019-02-23T02:35:43.298Z,11.67
2019-02-23T02:38:12.677Z,9.50
2019-02-23T02:40:42.003Z,10.83
2019-02-23T02:43:11.353Z,10.63
2019-02-23T02:45:40.686Z,8.73
2019-02-23T02:48:10.017Z,12.43
2019-02-23T02:50:39.467Z,11.50
2019-02-23T02:53:08.791Z,11.57
2019-02-23T02:55:38.108Z,11.83
2019-02-23T02:58:07.450Z,12.30
2019-02-23T03:00:36.743Z,13.87
2019-02-23T03:03:06.060Z,11.47
2019-02-23T03:05:35.398Z,15.70
2019-02-23T03:08:04.670Z,13.03
2019-02-23T03:10:34.012Z,13.30
2019-02-23T03:13:03.382Z,15.53
2019-02-23T03:15:32.731Z,14.03
2019-02-23T03:18:02.045Z,15.43
2019-02-23T03:20:36.750Z,15.73
2019-02-23T03:23:02.326Z,12.73
2019-02-23T03:25:31.659Z,11.80
2019-02-23T03:28:00.977Z,10.47
2019-02-23T03:30:30.308Z,13.40
2019-02-23T03:32:59.681Z,13.47
2019-02-23T03:35:29.022Z,10.90
2019-02-23T03:37:58.386Z,14.20
2019-02-23T03:40:27.705Z,16.07
2019-02-23T03:42:57.037Z,11.63
2019-02-23T03:45:26.358Z,12.73
2019-02-23T03:47:55.707Z,13.70
2019-02-23T03:50:25.046Z,14.33
2019-02-23T03:52:54.415Z,11.73
2019-02-23T03:55:23.749Z,13.17
2019-02-23T03:57:53.121Z,11.40
2019-02-23T04:00:22.433Z,10.90
2019-02-23T04:02:51.778Z,11.57
2019-02-23T04:05:21.101Z,10.40
2019-02-23T04:07:50.433Z,14.83
2019-02-23T04:10:19.756Z,13.37
2019-02-23T04:12:49.094Z,13.00
2019-02-23T04:15:18.448Z,9.53
2019-02-23T04:17:47.772Z,12.83
2019-02-23T04:20:17.103Z,13.03
2019-02-23T04:22:46.447Z,10.43
2019-02-23T04:25:15.817Z,10.70
2019-02-23T04:27:45.920Z,7.03
2019-02-23T04:30:15.227Z,9.33
2019-02-23T04:32:44.569Z,11.13
2019-02-23T04:35:13.861Z,14.93
2019-02-23T04:37:43.235Z,12.53
2019-02-23T04:40:12.573Z,13.67
2019-02-23T04:42:41.928Z,9.73
2019-02-23T04:45:11.227Z,13.43
2019-02-23T04:47:40.538Z,14.20
2019-02-23T04:50:09.898Z,11.07
2019-02-23T04:52:39.255Z,14.57
2019-02-23T04:55:08.591Z,13.27
2019-02-23T04:57:37.936Z,10.93
2019-02-23T05:00:08.560Z,11.10
2019-02-23T05:02:37.853Z,13.97
2019-02-23T05:05:08.279Z,11.23
2019-02-23T05:07:37.595Z,11.60
2019-02-23T05:10:06.992Z,11.97
2019-02-23T05:12:36.319Z,11.17
2019-02-23T05:15:05.837Z,9.90
2019-02-23T05:17:35.132Z,9.60
2019-02-23T05:20:04.600Z,10.47
2019-02-23T05:22:33.903Z,9.80
2019-02-23T05:25:03.244Z,12.00
2019-02-23T05:27:32.574Z,11.17
2019-02-23T05:30:01.929Z,11.50
2019-02-23T05:32:31.303Z,13.73
2019-02-23T05:35:00.598Z,9.10
2019-02-23T05:37:29.900Z,12.77
2019-02-23T05:39:59.250Z,11.87
2019-02-23T05:42:28.605Z,10.60
2019-02-23T05:44:57.956Z,11.27
2019-02-23T05:47:27.312Z,11.40
2019-02-23T05:49:56.623Z,11.80
2019-02-23T05:52:25.943Z,12.07
2019-02-23T05:54:55.271Z,12.90
2019-02-23T05:57:24.641Z,12.23
2019-02-23T05:59:53.995Z,11.53
2019-02-23T06:02:23.345Z,9.97
2019-02-23T06:04:52.685Z,8.50
2019-02-23T06:07:22.026Z,11.03
2019-02-23T06:09:51.346Z,10.80
2019-02-23T06:12:20.688Z,10.20
2019-02-23T06:14:50.009Z,11.70
2019-02-23T06:17:19.339Z,11.50
2019-02-23T06:19:48.679Z,11.07
2019-02-23T06:22:18.015Z,10.73
2019-02-23T06:24:47.346Z,12.67
2019-02-23T06:27:16.688Z,12.50
2019-02-23T06:29:46.014Z,14.23
2019-02-23T06:32:15.377Z,15.70
2019-02-23T06:34:44.690Z,13.47
2019-02-23T06:37:14.050Z,12.73
2019-02-23T06:39:43.373Z,15.83
2019-02-23T06:42:12.728Z,11.00
2019-02-23T06:44:42.084Z,15.87
2019-02-23T06:47:11.441Z,19.30
2019-02-23T06:49:40.791Z,13.10
2019-02-23T06:52:10.116Z,13.40
2019-02-23T06:54:39.455Z,12.03
2019-02-23T06:57:08.814Z,11.67
2019-02-23T06:59:38.162Z,12.53
2019-02-23T07:02:07.500Z,11.27
2019-02-23T07:04:36.875Z,16.27
2019-02-23T07:07:06.204Z,10.13
2019-02-23T07:09:35.514Z,13.90
2019-02-23T07:12:04.823Z,11.93
2019-02-23T07:14:34.138Z,12.30
2019-02-23T07:17:05.161Z,13.83
2019-02-23T07:19:34.642Z,14.03
2019-02-23T07:22:14.760Z,13.10
2019-02-23T07:24:34.952Z,12.20
2019-02-23T07:27:04.306Z,12.63
2019-02-23T07:29:33.658Z,14.37
2019-02-23T07:32:02.981Z,12.33
2019-02-23T07:34:32.316Z,12.47
2019-02-23T07:37:01.650Z,13.30
2019-02-23T07:39:30.975Z,19.57
2019-02-23T07:42:00.273Z,13.17
2019-02-23T07:44:29.580Z,13.27
2019-02-23T07:46:58.898Z,13.63
2019-02-23T07:49:28.245Z,12.97
2019-02-23T07:51:57.585Z,17.20
2019-02-23T07:54:26.964Z,11.60
2019-02-23T07:56:56.263Z,13.50
2019-02-23T07:59:25.591Z,16.33
2019-02-23T08:01:54.952Z,12.77
2019-02-23T08:04:24.305Z,16.13
2019-02-23T08:06:53.609Z,15.73
2019-02-23T08:09:22.933Z,10.93
2019-02-23T08:11:52.251Z,14.07
2019-02-23T08:14:21.573Z,13.97
2019-02-23T08:16:50.877Z,11.37
2019-02-23T08:19:20.262Z,13.67
2019-02-23T08:21:49.612Z,13.47
2019-02-23T08:24:18.928Z,14.33
2019-02-23T08:26:48.240Z,15.07
2019-02-23T08:29:17.557Z,13.23
2019-02-23T08:31:46.883Z,13.20
2019-02-23T08:34:16.203Z,14.53
2019-02-23T08:36:45.547Z,14.90
2019-02-23T08:39:14.870Z,13.37
2019-02-23T08:41:44.207Z,11.97
2019-02-23T08:44:13.564Z,12.97
2019-02-23T08:46:42.885Z,13.63
2019-02-23T08:49:12.329Z,14.93
2019-02-23T08:51:41.650Z,13.63
2019-02-23T08:54:11.018Z,13.37
2019-02-23T08:56:40.347Z,14.13
2019-02-23T08:59:09.698Z,12.70
2019-02-23T09:01:39.049Z,13.97
2019-02-23T09:04:08.322Z,14.30
2019-02-23T09:06:37.648Z,16.90
2019-02-23T09:09:08.222Z,16.10
2019-02-23T09:11:37.603Z,13.57
2019-02-23T09:14:06.919Z,14.77
2019-02-23T09:16:36.234Z,12.47
2019-02-23T09:19:05.566Z,10.43
2019-02-23T09:21:34.914Z,11.23
2019-02-23T09:24:04.226Z,17.80
2019-02-23T09:26:33.614Z,9.60
2019-02-23T09:29:02.817Z,13.83
2019-02-23T09:31:32.171Z,12.73
2019-02-23T09:34:01.486Z,13.27
2019-02-23T09:36:30.805Z,17.00
2019-02-23T09:39:00.128Z,13.33
2019-02-23T09:41:29.433Z,12.93
2019-02-23T09:43:58.778Z,14.37
2019-02-23T09:46:28.133Z,13.43
2019-02-23T09:48:57.463Z,15.83
2019-02-23T09:51:26.826Z,10.93
2019-02-23T09:53:56.183Z,10.60
2019-02-23T09:56:25.494Z,11.80
2019-02-23T09:58:54.907Z,10.60
2019-02-23T10:01:24.184Z,13.00
2019-02-23T10:03:53.559Z,11.53
2019-02-23T10:06:22.962Z,11.80
2019-02-23T10:08:52.257Z,10.90
2019-02-23T10:11:21.597Z,13.20
2019-02-23T10:13:50.886Z,11.13
2019-02-23T10:16:20.259Z,13.30
2019-02-23T10:18:49.568Z,12.80
2019-02-23T10:21:18.909Z,13.40
2019-02-23T10:23:48.259Z,11.97
2019-02-23T10:26:17.590Z,10.37
2019-02-23T10:28:46.914Z,11.70
2019-02-23T10:31:16.284Z,9.60
2019-02-23T10:33:47.562Z,14.03
2019-02-23T10:36:16.615Z,10.30
2019-02-23T10:38:45.927Z,9.97
2019-02-23T10:41:15.274Z,15.03
2019-02-23T10:43:44.611Z,11.17
2019-02-23T10:46:13.939Z,9.60
2019-02-23T10:48:43.268Z,11.93
2019-02-23T10:51:12.622Z,9.97
2019-02-23T10:53:41.953Z,10.03
2019-02-23T10:56:11.470Z,10.27
2019-02-23T10:58:40.808Z,9.43
2019-02-23T11:01:10.167Z,10.00
2019-02-23T11:03:39.703Z,10.30
2019-02-23T11:06:09.325Z,12.63
2019-02-23T11:08:38.658Z,10.80
2019-02-23T11:11:08.097Z,12.43
2019-02-23T11:13:37.425Z,10.53
2019-02-23T11:16:06.722Z,9.00
2019-02-23T11:18:36.054Z,11.80
2019-02-23T11:21:05.370Z,9.13
2019-02-23T11:23:43.911Z,10.90
2019-02-23T11:26:05.660Z,9.80
2019-02-23T11:28:34.935Z,8.60
2019-02-23T11:31:04.268Z,7.83
2019-02-23T11:33:33.587Z,7.67
2019-02-23T11:36:02.975Z,11.13
2019-02-23T11:38:32.301Z,8.67
2019-02-23T11:41:01.690Z,9.03
2019-02-23T11:43:30.999Z,8.93
2019-02-23T11:46:00.299Z,9.87
2019-02-23T11:48:29.617Z,10.83
2019-02-23T11:50:58.903Z,7.47
2019-02-23T11:53:28.239Z,8.47
2019-02-23T11:55:57.574Z,15.20
2019-02-23T11:58:26.901Z,11.50
2019-02-23T12:00:56.202Z,12.83
2019-02-23T12:03:25.541Z,11.73
2019-02-23T12:05:54.916Z,8.63
2019-02-23T12:08:24.200Z,9.97
2019-02-23T12:10:53.521Z,11.53
2019-02-23T12:13:22.822Z,9.63
2019-02-23T12:15:52.127Z,11.03
2019-02-23T12:18:21.482Z,9.87
2019-02-23T12:20:50.822Z,9.60
2019-02-23T12:23:20.152Z,7.37
2019-02-23T12:25:49.502Z,7.83
2019-02-23T12:28:18.834Z,9.07
2019-02-23T12:30:48.137Z,10.20
2019-02-23T12:33:17.489Z,8.93
2019-02-23T12:35:46.779Z,7.73
2019-02-23T12:38:16.126Z,9.23
2019-02-23T12:40:45.403Z,10.10
2019-02-23T12:43:14.726Z,7.23
2019-02-23T12:45:44.052Z,9.80
2019-02-23T12:48:13.384Z,7.60
2019-02-23T12:50:42.675Z,7.93
2019-02-23T12:53:11.967Z,8.50
2019-02-23T12:55:41.296Z,8.30
2019-02-23T12:58:10.715Z,8.67
2019-02-23T13:00:40.126Z,6.77
2019-02-23T13:03:09.458Z,6.30
2019-02-23T13:05:38.787Z,7.20
2019-02-23T13:08:08.102Z,9.40
2019-02-23T13:10:37.442Z,11.57
2019-02-23T13:13:51.625Z,8.23
2019-02-23T13:16:42.210Z,7.87
2019-02-23T13:20:08.971Z,8.90
2019-02-23T13:23:19.554Z,9.70
2019-02-23T13:26:21.142Z,9.47
2019-02-23T13:28:59.918Z,11.23
2019-02-23T13:32:19.302Z,7.13
2019-02-23T13:35:20.743Z,7.50
2019-02-23T13:38:40.715Z,8.30
2019-02-23T13:41:23.327Z,11.00
2019-02-23T13:44:21.654Z,7.10
2019-02-23T13:47:18.764Z,6.57
2019-02-23T13:50:35.121Z,8.43
2019-02-23T13:54:15.922Z,8.00
2019-02-23T13:57:17.838Z,8.97
2019-02-23T14:00:29.847Z,8.97
2019-02-23T14:03:52.376Z,7.40
2019-02-23T14:06:36.600Z,8.73
2019-02-23T14:09:44.235Z,6.43
2019-02-23T14:13:06.886Z,8.27
2019-02-23T14:16:16.505Z,8.97
2019-02-23T14:19:32.789Z,7.53
2019-02-23T14:23:01.359Z,7.73
2019-02-23T14:25:57.138Z,6.87
2019-02-23T14:28:56.126Z,8.77
2019-02-23T14:32:07.391Z,7.77
2019-02-23T14:35:15.158Z,9.10
2019-02-23T14:38:20.951Z,8.67
2019-02-23T14:41:55.887Z,11.30
2019-02-23T14:44:50.707Z,11.17
2019-02-23T14:48:13.049Z,17.17
2019-02-23T14:51:35.994Z,9.33
2019-02-23T14:54:23.280Z,8.30
2019-02-23T14:57:38.946Z,12.17
2019-02-23T15:00:47.088Z,10.67
2019-02-23T15:03:58.250Z,11.33
2019-02-23T15:06:55.074Z,11.13
2019-02-23T15:10:17.262Z,10.83
2019-02-23T15:13:39.874Z,12.20
2019-02-23T15:16:56.477Z,9.90
2019-02-23T15:19:52.442Z,12.93
2019-02-23T15:22:58.227Z,11.20
2019-02-23T15:26:11.542Z,13.73
2019-02-23T15:29:26.760Z,11.77
2019-02-23T15:32:51.207Z,11.60
2019-02-23T15:35:54.754Z,11.40
2019-02-23T15:39:07.952Z,14.23
2019-02-23T15:42:12.475Z,12.43
2019-02-23T15:45:50.222Z,10.93
2019-02-23T15:48:44.712Z,12.10
2019-02-23T15:51:14.160Z,11.97
2019-02-23T15:53:43.476Z,14.97
2019-02-23T15:56:12.773Z,12.67
2019-02-23T15:58:42.098Z,13.80
2019-02-23T16:01:11.441Z,13.77
2019-02-23T16:03:40.749Z,13.57
2019-02-23T16:06:10.103Z,10.63
2019-02-23T16:08:39.427Z,11.23
2019-02-23T16:11:08.872Z,14.00
2019-02-23T16:13:38.307Z,10.27
2019-02-23T16:16:07.618Z,11.07
2019-02-23T16:18:36.963Z,14.67
2019-02-23T16:21:06.265Z,13.17
2019-02-23T16:23:35.773Z,12.87
2019-02-23T16:26:05.003Z,13.27
2019-02-23T16:28:34.335Z,14.77
2019-02-23T16:31:03.661Z,14.27
2019-02-23T16:33:32.994Z,12.67
2019-02-23T16:36:02.295Z,14.53
2019-02-23T16:38:31.624Z,15.37
2019-02-23T16:41:01.023Z,15.23
2019-02-23T16:43:30.342Z,18.13
2019-02-23T16:45:59.679Z,18.67
2019-02-23T16:48:28.979Z,29.53
2019-02-23T16:50:58.452Z,19.73
2019-02-23T16:53:27.764Z,27.57
2019-02-23T16:55:57.061Z,28.67
2019-02-23T16:58:26.392Z,34.67
2019-02-23T17:00:55.725Z,38.60
2019-02-23T17:03:25.050Z,26.70
2019-02-23T17:05:54.382Z,19.33
2019-02-23T17:08:23.731Z,19.63
2019-02-23T17:10:53.095Z,15.63
2019-02-23T17:13:22.432Z,16.37
2019-02-23T17:15:51.775Z,18.53
2019-02-23T17:18:21.111Z,20.43
2019-02-23T17:20:50.441Z,18.33
2019-02-23T17:23:19.782Z,16.30
2019-02-23T17:25:49.104Z,16.47
2019-02-23T17:28:18.458Z,18.50
2019-02-23T17:30:47.773Z,16.10
2019-02-23T17:33:17.114Z,20.53
2019-02-23T17:35:46.490Z,19.27
2019-02-23T17:38:16.600Z,18.93
2019-02-23T17:40:45.947Z,19.80
2019-02-23T17:43:15.282Z,16.87
2019-02-23T17:45:44.599Z,21.40
2019-02-23T17:48:13.952Z,21.83
2019-02-23T17:50:43.286Z,20.70
2019-02-23T17:53:12.646Z,17.73
2019-02-23T17:55:41.914Z,18.97
2019-02-23T17:58:11.248Z,16.03
2019-02-23T18:00:40.602Z,21.50
2019-02-23T18:03:09.954Z,23.33
2019-02-23T18:05:39.307Z,15.07
2019-02-23T18:08:08.632Z,24.23
2019-02-23T18:10:37.988Z,30.57
2019-02-23T18:13:07.331Z,34.03
2019-02-23T18:15:36.638Z,38.43
2019-02-23T18:18:05.965Z,35.10
2019-02-23T18:20:35.298Z,39.03
2019-02-23T18:23:04.640Z,32.33
2019-02-23T18:25:33.986Z,29.53
2019-02-23T18:28:03.360Z,25.43
2019-02-23T18:30:32.699Z,26.20
2019-02-23T18:33:02.030Z,21.77
2019-02-23T18:35:31.390Z,23.50
2019-02-23T18:38:00.743Z,23.83
2019-02-23T18:40:30.113Z,21.70
2019-02-23T18:42:59.489Z,23.70
2019-02-23T18:45:28.853Z,20.37
2019-02-23T18:47:58.173Z,24.07
2019-02-23T18:50:27.545Z,19.07
2019-02-23T18:52:56.847Z,22.07
2019-02-23T18:55:26.173Z,22.27
2019-02-23T18:57:55.504Z,21.17
2019-02-23T19:00:24.866Z,20.83
2019-02-23T19:02:54.246Z,22.47
2019-02-23T19:05:23.586Z,22.33
2019-02-23T19:07:52.938Z,20.97
2019-02-23T19:10:22.257Z,22.87
2019-02-23T19:12:51.593Z,24.60
2019-02-23T19:15:20.902Z,26.07
2019-02-23T19:17:50.259Z,20.07
2019-02-23T19:20:19.578Z,21.07
2019-02-23T19:22:48.906Z,23.20
2019-02-23T19:25:18.317Z,22.20
2019-02-23T19:27:49.381Z,21.03
2019-02-23T19:30:18.595Z,24.80
2019-02-23T19:32:47.979Z,27.50
2019-02-23T19:35:17.306Z,24.50
2019-02-23T19:37:46.645Z,20.63
2019-02-23T19:40:16.005Z,24.83
2019-02-23T19:42:45.335Z,20.60
2019-02-23T19:45:14.699Z,24.73
2019-02-23T19:47:44.020Z,20.53
2019-02-23T19:50:19.915Z,24.63
2019-02-23T19:52:49.286Z,20.63
2019-02-23T19:55:18.621Z,19.03
2019-02-23T19:57:47.938Z,22.43
2019-02-23T20:00:17.296Z,26.77
2019-02-23T20:02:46.675Z,26.13
2019-02-23T20:05:16.034Z,33.93
2019-02-23T20:07:45.345Z,23.30
2019-02-23T20:10:14.664Z,27.73
2019-02-23T20:12:44.003Z,26.53
2019-02-23T20:15:13.294Z,34.33
2019-02-23T20:17:42.604Z,30.30
2019-02-23T20:20:11.921Z,25.17
2019-02-23T20:22:41.240Z,27.87
2019-02-23T20:25:10.611Z,23.50
2019-02-23T20:27:39.959Z,25.67
2019-02-23T20:30:09.552Z,24.60
2019-02-23T20:32:38.868Z,23.27
2019-02-23T20:35:08.345Z,27.37
2019-02-23T20:37:37.647Z,25.97
2019-02-23T20:40:07.653Z,26.53
2019-02-23T20:42:36.970Z,24.60
2019-02-23T20:45:06.367Z,24.53
2019-02-23T20:47:35.692Z,23.17
2019-02-23T20:50:05.964Z,19.10
2019-02-23T20:52:35.233Z,23.70
2019-02-23T20:55:04.587Z,20.17
2019-02-23T20:57:33.958Z,24.23
2019-02-23T21:00:03.238Z,23.73
2019-02-23T21:02:32.627Z,23.73
2019-02-23T21:05:01.963Z,24.33
2019-02-23T21:07:31.295Z,20.77
2019-02-23T21:10:00.661Z,23.83
2019-02-23T21:12:29.954Z,18.33
2019-02-23T21:14:59.299Z,22.17
2019-02-23T21:17:28.622Z,19.20
2019-02-23T21:19:57.971Z,22.03
2019-02-23T21:22:27.285Z,23.03
2019-02-23T21:24:56.649Z,19.73
2019-02-23T21:27:26.026Z,21.10
2019-02-23T21:29:55.322Z,22.50
2019-02-23T21:32:24.698Z,22.43
2019-02-23T21:34:54.038Z,20.23
2019-02-23T21:37:23.393Z,21.83
2019-02-23T21:39:52.742Z,21.23
2019-02-23T21:42:22.055Z,23.57
2019-02-23T21:44:51.417Z,17.37
2019-02-23T21:47:20.719Z,16.00
2019-02-23T21:49:50.063Z,22.80
2019-02-23T21:52:19.409Z,24.97
2019-02-23T21:54:48.749Z,20.83
2019-02-23T21:57:22.260Z,21.73
2019-02-23T21:59:49.052Z,28.67
2019-02-23T22:02:18.461Z,27.23
2019-02-23T22:04:47.928Z,25.27
2019-02-23T22:07:17.261Z,22.50
2019-02-23T22:09:46.542Z,24.33
2019-02-23T22:12:15.847Z,29.23
2019-02-23T22:14:45.150Z,28.50
2019-02-23T22:17:14.474Z,23.97
2019-02-23T22:19:43.760Z,27.63
2019-02-23T22:22:13.067Z,19.13
2019-02-23T22:24:42.355Z,20.07
2019-02-23T22:27:11.674Z,19.37
2019-02-23T22:29:41.018Z,19.87
2019-02-23T22:32:10.307Z,20.13
2019-02-23T22:34:39.600Z,23.07
2019-02-23T22:37:08.907Z,21.93
2019-02-23T22:39:38.185Z,25.07
2019-02-23T22:42:07.495Z,24.27
2019-02-23T22:44:36.787Z,26.80
2019-02-23T22:47:06.098Z,21.53
2019-02-23T22:49:35.410Z,26.23
2019-02-23T22:52:04.691Z,25.90
2019-02-23T22:54:34.003Z,25.90
2019-02-23T22:57:04.462Z,24.00
2019-02-23T22:59:33.814Z,26.80
2019-02-23T23:02:03.456Z,24.70
2019-02-23T23:04:32.771Z,23.43
2019-02-23T23:07:02.107Z,25.70
2019-02-23T23:09:31.418Z,25.43
2019-02-23T23:12:00.712Z,22.70
2019-02-23T23:14:30.040Z,21.63
2019-02-23T23:16:59.332Z,22.30
2019-02-23T23:19:28.662Z,22.80
2019-02-23T23:21:57.933Z,24.40
2019-02-23T23:24:27.260Z,20.03
2019-02-23T23:26:56.576Z,19.77
2019-02-23T23:29:25.885Z,18.13
2019-02-23T23:31:55.198Z,20.50
2019-02-23T23:34:24.479Z,23.30
2019-02-23T23:36:53.795Z,21.67
2019-02-23T23:39:23.085Z,20.03
2019-02-23T23:41:52.397Z,20.90
2019-02-23T23:44:21.706Z,17.80
2019-02-23T23:46:51.030Z,20.47
2019-02-23T23:49:20.342Z,21.23
2019-02-23T23:51:49.655Z,21.43
2019-02-23T23:54:18.981Z,19.33
2019-02-23T23:56:48.270Z,22.00
2019-02-23T23:59:17.568Z,21.90
